Time;durP1;ratioP1;P1;durP2;ratioP2;P2;SDS_P1;SDS_P2;PMS_P1;PMS_P2;Temp;Humidity;BMP_temperature;BMP_pressure;BME280_temperature;BME280_humidity;BME280_pressure;Samples;Min_cycle;Max_cycle;Signal;HPM_P1;HPM_P2
2023/11/28 00:01:19;;;;;;;11.80;8.10;;;;;;;;;;773404;180;920436;-67
2023/11/28 00:03:44;;;;;;;13.47;7.90;;;;;;;;;;761930;182;922372;-67
2023/11/28 00:06:15;;;;;;;11.40;7.70;;;;;;;;;;771344;181;917915;-66
2023/11/28 00:08:41;;;;;;;11.27;7.60;;;;;;;;;;778456;180;723157;-66
2023/11/28 00:11:06;;;;;;;15.03;8.53;;;;;;;;;;774607;177;911647;-71
2023/11/28 00:13:32;;;;;;;10.50;7.47;;;;;;;;;;774155;179;915369;-70
2023/11/28 00:15:58;;;;;;;10.50;5.50;;;;;;;;;;777642;178;920472;-67
2023/11/28 00:18:24;;;;;;;9.82;6.05;;;;;;;;;;771000;180;916746;-67
2023/11/28 00:20:50;;;;;;;12.80;7.10;;;;;;;;;;772531;179;918780;-71
2023/11/28 00:23:16;;;;;;;10.83;7.63;;;;;;;;;;774648;180;920134;-66
2023/11/28 00:25:41;;;;;;;14.07;8.07;;;;;;;;;;772845;181;881510;-66
2023/11/28 00:28:08;;;;;;;10.87;7.70;;;;;;;;;;769516;180;919575;-71
2023/11/28 00:30:33;;;;;;;16.20;9.80;;;;;;;;;;781426;180;918411;-70
2023/11/28 00:32:59;;;;;;;13.73;8.63;;;;;;;;;;777061;180;918448;-71
2023/11/28 00:35:25;;;;;;;14.60;7.83;;;;;;;;;;770468;180;918303;-65
2023/11/28 00:37:51;;;;;;;10.80;7.83;;;;;;;;;;772272;178;919913;-70
2023/11/28 00:40:16;;;;;;;11.50;7.03;;;;;;;;;;774330;180;918774;-66
2023/11/28 00:42:42;;;;;;;13.47;7.90;;;;;;;;;;760737;182;919202;-66
2023/11/28 00:45:09;;;;;;;13.85;9.05;;;;;;;;;;773380;180;919348;-66
2023/11/28 00:47:35;;;;;;;18.70;10.60;;;;;;;;;;778523;180;918206;-70
2023/11/28 00:50:00;;;;;;;14.23;9.10;;;;;;;;;;769760;179;918606;-66
2023/11/28 00:52:26;;;;;;;16.20;8.30;;;;;;;;;;773106;177;940261;-69
2023/11/28 00:54:52;;;;;;;12.23;7.80;;;;;;;;;;773947;180;918966;-65
2023/11/28 00:57:18;;;;;;;10.67;5.60;;;;;;;;;;774490;180;919283;-66
2023/11/28 00:59:44;;;;;;;12.37;7.83;;;;;;;;;;769556;180;919356;-67
2023/11/28 01:02:10;;;;;;;9.83;5.60;;;;;;;;;;773499;179;917714;-66
2023/11/28 01:04:35;;;;;;;7.17;5.10;;;;;;;;;;773353;180;815963;-66
2023/11/28 01:07:02;;;;;;;10.33;6.80;;;;;;;;;;763193;180;919426;-65
2023/11/28 01:09:27;;;;;;;11.80;6.03;;;;;;;;;;762227;180;920008;-70
2023/11/28 01:11:53;;;;;;;12.05;5.72;;;;;;;;;;778019;181;918685;-70
2023/11/28 01:14:19;;;;;;;8.83;5.90;;;;;;;;;;773182;179;918272;-71
2023/11/28 01:16:45;;;;;;;9.87;6.03;;;;;;;;;;773293;177;815980;-65
2023/11/28 01:19:10;;;;;;;7.10;5.73;;;;;;;;;;777954;180;915770;-66
2023/11/28 01:21:36;;;;;;;8.00;5.20;;;;;;;;;;766934;180;918680;-65
2023/11/28 01:24:02;;;;;;;9.97;5.80;;;;;;;;;;771608;178;918647;-65
2023/11/28 01:26:28;;;;;;;10.43;5.27;;;;;;;;;;772972;180;862677;-66
2023/11/28 01:28:54;;;;;;;10.47;6.50;;;;;;;;;;761815;178;918993;-70
2023/11/28 01:31:20;;;;;;;11.03;6.60;;;;;;;;;;772604;180;922922;-65
2023/11/28 01:33:46;;;;;;;10.57;7.77;;;;;;;;;;772117;180;917140;-65
2023/11/28 01:36:12;;;;;;;11.00;6.53;;;;;;;;;;770866;180;925757;-71
2023/11/28 01:38:38;;;;;;;12.33;7.60;;;;;;;;;;772479;177;818299;-71
2023/11/28 01:41:04;;;;;;;13.17;7.47;;;;;;;;;;761064;181;920555;-70
2023/11/28 01:43:30;;;;;;;15.20;9.23;;;;;;;;;;780762;178;918221;-66
2023/11/28 01:45:56;;;;;;;12.83;8.63;;;;;;;;;;774463;177;932569;-65
2023/11/28 01:48:22;;;;;;;17.10;9.50;;;;;;;;;;763350;180;1019951;-69
2023/11/28 01:50:47;;;;;;;14.43;8.50;;;;;;;;;;772959;180;1020387;-66
2023/11/28 01:53:13;;;;;;;13.50;8.77;;;;;;;;;;775290;178;818882;-70
2023/11/28 01:55:39;;;;;;;14.63;8.90;;;;;;;;;;770296;180;916561;-65
2023/11/28 01:58:05;;;;;;;20.47;10.20;;;;;;;;;;774102;178;919411;-69
2023/11/28 02:00:31;;;;;;;12.70;8.63;;;;;;;;;;776392;181;918514;-65
2023/11/28 02:02:57;;;;;;;21.05;11.77;;;;;;;;;;771330;178;920973;-65
2023/11/28 02:05:22;;;;;;;17.97;8.97;;;;;;;;;;774499;178;910515;-70
2023/11/28 02:07:48;;;;;;;17.67;11.47;;;;;;;;;;770960;180;918515;-65
2023/11/28 02:10:14;;;;;;;21.93;11.53;;;;;;;;;;775032;177;916786;-65
2023/11/28 02:12:40;;;;;;;18.10;11.40;;;;;;;;;;774387;180;920782;-70
2023/11/28 02:15:06;;;;;;;20.90;11.33;;;;;;;;;;776760;181;919118;-70
2023/11/28 02:17:32;;;;;;;18.50;11.57;;;;;;;;;;774656;179;917241;-65
2023/11/28 02:19:58;;;;;;;13.60;7.90;;;;;;;;;;771868;180;919482;-70
2023/11/28 02:22:24;;;;;;;16.37;9.43;;;;;;;;;;776784;180;919066;-71
2023/11/28 02:24:49;;;;;;;14.47;9.20;;;;;;;;;;771904;180;915954;-65
2023/11/28 02:27:15;;;;;;;14.90;9.27;;;;;;;;;;774073;180;914435;-70
2023/11/28 02:29:43;;;;;;;15.77;9.13;;;;;;;;;;770887;178;920705;-65
2023/11/28 02:32:07;;;;;;;13.13;8.53;;;;;;;;;;771484;181;917414;-65
2023/11/28 02:34:33;;;;;;;12.97;8.67;;;;;;;;;;773309;180;919528;-64
2023/11/28 02:36:59;;;;;;;16.70;9.13;;;;;;;;;;774483;177;923343;-70
2023/11/28 02:39:25;;;;;;;13.33;9.07;;;;;;;;;;775793;180;918793;-65
2023/11/28 02:41:52;;;;;;;14.73;9.70;;;;;;;;;;770691;179;919015;-65
2023/11/28 02:44:16;;;;;;;16.47;9.60;;;;;;;;;;775437;180;815622;-66
2023/11/28 02:46:42;;;;;;;13.17;8.87;;;;;;;;;;775039;180;916913;-66
2023/11/28 02:49:08;;;;;;;13.13;7.32;;;;;;;;;;774276;180;919057;-66
2023/11/28 02:51:34;;;;;;;12.70;8.20;;;;;;;;;;769894;180;918916;-72
2023/11/28 02:54:01;;;;;;;13.40;8.70;;;;;;;;;;780703;179;870055;-66
2023/11/28 02:56:26;;;;;;;12.20;8.23;;;;;;;;;;764559;177;921356;-66
2023/11/28 02:58:53;;;;;;;15.00;9.47;;;;;;;;;;762741;181;912323;-71
2023/11/28 03:01:17;;;;;;;12.37;7.47;;;;;;;;;;773548;177;908090;-70
2023/11/28 03:03:43;;;;;;;12.53;7.77;;;;;;;;;;775300;178;911017;-65
2023/11/28 03:06:09;;;;;;;13.57;8.97;;;;;;;;;;775052;181;912222;-71
2023/11/28 03:08:35;;;;;;;15.80;9.00;;;;;;;;;;769405;178;918647;-70
2023/11/28 03:11:01;;;;;;;11.03;7.00;;;;;;;;;;776415;180;921010;-70
2023/11/28 03:13:27;;;;;;;12.63;8.70;;;;;;;;;;770074;179;918098;-70
2023/11/28 03:15:53;;;;;;;13.38;7.68;;;;;;;;;;770697;180;920816;-70
2023/11/28 03:18:18;;;;;;;16.00;7.60;;;;;;;;;;778139;177;921578;-70
2023/11/28 03:20:44;;;;;;;12.07;8.47;;;;;;;;;;773892;178;919921;-70
2023/11/28 03:23:10;;;;;;;11.23;7.23;;;;;;;;;;773628;178;922346;-70
2023/11/28 03:25:36;;;;;;;15.27;8.80;;;;;;;;;;775584;178;1018273;-66
2023/11/28 03:28:03;;;;;;;12.13;8.03;;;;;;;;;;770841;181;814441;-69
2023/11/28 03:30:28;;;;;;;13.53;6.50;;;;;;;;;;772007;179;918856;-66
2023/11/28 03:32:54;;;;;;;10.23;6.40;;;;;;;;;;770571;181;918331;-69
2023/11/28 03:35:20;;;;;;;12.87;7.07;;;;;;;;;;773792;177;918421;-70
2023/11/28 03:37:46;;;;;;;10.23;6.20;;;;;;;;;;767810;180;918339;-70
2023/11/28 03:40:11;;;;;;;11.67;6.60;;;;;;;;;;773738;180;919005;-70
2023/11/28 03:42:37;;;;;;;10.60;6.30;;;;;;;;;;780376;177;820462;-69
2023/11/28 03:45:04;;;;;;;9.27;6.27;;;;;;;;;;773649;178;917197;-65
2023/11/28 03:47:29;;;;;;;12.37;8.53;;;;;;;;;;774025;178;925096;-65
2023/11/28 03:49:56;;;;;;;23.12;11.10;;;;;;;;;;779981;180;819278;-69
2023/11/28 03:52:21;;;;;;;27.40;15.50;;;;;;;;;;767410;180;921865;-70
2023/11/28 03:54:47;;;;;;;18.73;11.77;;;;;;;;;;774287;180;925053;-70
2023/11/28 03:57:13;;;;;;;46.77;27.20;;;;;;;;;;774493;180;902821;-65
2023/11/28 03:59:38;;;;;;;26.60;12.60;;;;;;;;;;778442;180;918121;-65
2023/11/28 04:02:04;;;;;;;15.03;9.17;;;;;;;;;;769088;177;929541;-69
2023/11/28 04:04:30;;;;;;;16.50;11.13;;;;;;;;;;759719;179;906663;-65
2023/11/28 04:06:56;;;;;;;16.97;9.97;;;;;;;;;;779002;180;873195;-65
2023/11/28 04:09:22;;;;;;;9.27;7.03;;;;;;;;;;766588;177;917761;-65
2023/11/28 04:11:48;;;;;;;11.53;7.80;;;;;;;;;;769951;180;919307;-65
2023/11/28 04:14:13;;;;;;;10.00;6.17;;;;;;;;;;778944;178;896950;-65
2023/11/28 04:16:39;;;;;;;10.00;6.03;;;;;;;;;;774077;177;875000;-70
2023/11/28 04:19:05;;;;;;;9.43;5.87;;;;;;;;;;771664;181;916335;-70
2023/11/28 04:21:32;;;;;;;10.82;6.60;;;;;;;;;;777671;180;829210;-69
2023/11/28 04:23:57;;;;;;;9.50;5.80;;;;;;;;;;771416;178;817233;-69
2023/11/28 04:26:23;;;;;;;8.80;5.33;;;;;;;;;;767401;181;919747;-70
2023/11/28 04:28:49;;;;;;;11.80;7.50;;;;;;;;;;771489;180;919326;-65
2023/11/28 04:31:16;;;;;;;39.20;30.20;;;;;;;;;;776119;180;919454;-65
2023/11/28 04:33:42;;;;;;;11.20;7.20;;;;;;;;;;770751;177;920355;-70
2023/11/28 04:36:08;;;;;;;11.65;7.45;;;;;;;;;;760134;181;918357;-64
2023/11/28 04:38:33;;;;;;;39.97;25.53;;;;;;;;;;773140;180;884564;-64
2023/11/28 04:40:59;;;;;;;20.13;13.43;;;;;;;;;;771478;178;868176;-63
2023/11/28 04:43:25;;;;;;;17.20;14.47;;;;;;;;;;772049;179;915661;-70
2023/11/28 04:45:51;;;;;;;14.93;9.40;;;;;;;;;;777470;180;919511;-63
2023/11/28 04:48:17;;;;;;;14.70;10.20;;;;;;;;;;773514;180;919690;-69
2023/11/28 04:50:43;;;;;;;10.90;5.87;;;;;;;;;;768856;177;827304;-63
2023/11/28 04:53:09;;;;;;;11.87;7.10;;;;;;;;;;770751;179;1021363;-69
2023/11/28 04:55:34;;;;;;;9.05;5.43;;;;;;;;;;768908;181;820310;-62
2023/11/28 04:58:00;;;;;;;10.10;6.33;;;;;;;;;;767994;180;922680;-65
2023/11/28 05:00:26;;;;;;;11.60;8.93;;;;;;;;;;773327;180;915402;-62
2023/11/28 05:02:52;;;;;;;10.50;7.17;;;;;;;;;;781278;177;913652;-69
2023/11/28 05:05:18;;;;;;;13.10;9.07;;;;;;;;;;778213;180;633488;-69
2023/11/28 05:07:44;;;;;;;18.03;13.27;;;;;;;;;;770212;180;919326;-69
2023/11/28 05:10:09;;;;;;;12.57;8.53;;;;;;;;;;779097;180;615873;-68
2023/11/28 05:12:35;;;;;;;14.53;7.17;;;;;;;;;;779663;177;631322;-63
2023/11/28 05:15:01;;;;;;;12.07;6.40;;;;;;;;;;776380;180;618307;-67
2023/11/28 05:17:27;;;;;;;9.40;6.60;;;;;;;;;;778334;177;816574;-62
2023/11/28 05:19:53;;;;;;;7.50;5.03;;;;;;;;;;777847;181;636098;-67
2023/11/28 05:22:19;;;;;;;13.10;7.50;;;;;;;;;;774861;178;627652;-64
2023/11/28 05:24:45;;;;;;;8.43;6.20;;;;;;;;;;777551;177;623149;-64
2023/11/28 05:27:10;;;;;;;7.83;5.70;;;;;;;;;;783053;180;619663;-63
2023/11/28 05:29:36;;;;;;;9.47;6.50;;;;;;;;;;777869;180;626516;-64
2023/11/28 05:32:04;;;;;;;11.00;7.40;;;;;;;;;;777591;180;629890;-67
2023/11/28 05:34:28;;;;;;;8.63;6.70;;;;;;;;;;775211;180;816887;-63
2023/11/28 05:36:54;;;;;;;8.35;6.10;;;;;;;;;;772045;180;922101;-63
2023/11/28 05:39:19;;;;;;;12.67;7.70;;;;;;;;;;771437;179;914896;-64
2023/11/28 05:41:45;;;;;;;13.73;9.10;;;;;;;;;;777410;180;919564;-66
2023/11/28 05:44:11;;;;;;;19.00;14.53;;;;;;;;;;769376;180;922016;-66
2023/11/28 05:46:37;;;;;;;7.00;5.50;;;;;;;;;;763281;181;919072;-66
2023/11/28 05:49:03;;;;;;;11.10;6.93;;;;;;;;;;772598;177;921613;-66
2023/11/28 05:51:31;;;;;;;10.33;6.43;;;;;;;;;;775533;180;914636;-66
2023/11/28 05:53:54;;;;;;;9.87;6.97;;;;;;;;;;771021;178;911614;-67
2023/11/28 05:56:20;;;;;;;9.03;5.50;;;;;;;;;;762708;182;914109;-67
2023/11/28 05:58:46;;;;;;;13.17;7.77;;;;;;;;;;776355;180;914587;-64
2023/11/28 06:01:14;;;;;;;8.77;6.03;;;;;;;;;;772763;180;918729;-66
2023/11/28 06:03:39;;;;;;;15.43;8.50;;;;;;;;;;764178;181;920224;-66
2023/11/28 06:06:05;;;;;;;13.87;9.00;;;;;;;;;;767688;181;918223;-66
2023/11/28 06:08:32;;;;;;;14.30;8.33;;;;;;;;;;772475;179;914478;-65
2023/11/28 06:10:57;;;;;;;14.00;8.47;;;;;;;;;;769340;180;919635;-66
2023/11/28 06:13:22;;;;;;;13.50;9.90;;;;;;;;;;770589;180;840076;-64
2023/11/28 06:15:48;;;;;;;28.13;9.53;;;;;;;;;;770946;180;919613;-65
2023/11/28 06:18:14;;;;;;;19.77;10.33;;;;;;;;;;758569;181;923318;-63
2023/11/28 06:20:40;;;;;;;20.07;10.17;;;;;;;;;;771025;178;914915;-63
2023/11/28 06:23:06;;;;;;;16.60;9.53;;;;;;;;;;777191;180;913871;-65
2023/11/28 06:25:32;;;;;;;18.73;9.20;;;;;;;;;;770736;180;918050;-63
2023/11/28 06:27:57;;;;;;;12.97;7.10;;;;;;;;;;773903;179;919812;-65
2023/11/28 06:30:23;;;;;;;14.07;8.67;;;;;;;;;;781310;177;922704;-66
2023/11/28 06:32:49;;;;;;;16.50;11.00;;;;;;;;;;775978;180;916458;-64
2023/11/28 06:35:15;;;;;;;15.83;8.10;;;;;;;;;;759228;181;913428;-66
2023/11/28 06:37:41;;;;;;;20.80;9.63;;;;;;;;;;772974;181;919124;-66
2023/11/28 06:40:07;;;;;;;15.93;10.03;;;;;;;;;;772064;180;918305;-67
2023/11/28 06:42:33;;;;;;;17.83;11.27;;;;;;;;;;773627;178;919510;-63
2023/11/28 06:45:01;;;;;;;21.13;12.40;;;;;;;;;;773341;180;918519;-63
2023/11/28 06:47:25;;;;;;;21.37;13.37;;;;;;;;;;783257;178;618967;-66
2023/11/28 06:49:51;;;;;;;20.23;15.00;;;;;;;;;;770890;179;1045944;-66
2023/11/28 06:52:16;;;;;;;23.17;13.20;;;;;;;;;;773653;180;919546;-62
2023/11/28 06:54:43;;;;;;;20.30;10.57;;;;;;;;;;776789;180;911791;-62
2023/11/28 06:57:08;;;;;;;20.40;12.33;;;;;;;;;;774427;177;849663;-65
2023/11/28 06:59:34;;;;;;;22.50;14.80;;;;;;;;;;772722;181;919943;-64
2023/11/28 07:02:00;;;;;;;17.73;11.23;;;;;;;;;;778076;179;817244;-62
2023/11/28 07:04:26;;;;;;;20.77;12.07;;;;;;;;;;771501;178;924096;-64
2023/11/28 07:06:52;;;;;;;22.40;11.57;;;;;;;;;;772936;180;916255;-62
2023/11/28 07:09:18;;;;;;;19.27;11.50;;;;;;;;;;771493;177;929528;-65
2023/11/28 07:11:44;;;;;;;18.50;10.97;;;;;;;;;;760585;181;918874;-61
2023/11/28 07:14:09;;;;;;;18.00;12.90;;;;;;;;;;764869;181;919425;-64
2023/11/28 07:16:35;;;;;;;24.43;18.07;;;;;;;;;;773041;180;919957;-61
2023/11/28 07:19:01;;;;;;;18.20;12.47;;;;;;;;;;775957;180;919020;-65
2023/11/28 07:21:27;;;;;;;21.83;14.83;;;;;;;;;;772809;177;919055;-61
2023/11/28 07:23:53;;;;;;;19.30;13.90;;;;;;;;;;773170;176;821058;-65
2023/11/28 07:26:19;;;;;;;20.90;11.30;;;;;;;;;;768379;180;918281;-63
2023/11/28 07:28:45;;;;;;;24.55;13.95;;;;;;;;;;768947;181;920317;-61
2023/11/28 07:31:11;;;;;;;23.90;13.30;;;;;;;;;;770895;180;915625;-61
2023/11/28 07:33:38;;;;;;;24.95;14.38;;;;;;;;;;777504;179;888124;-62
2023/11/28 07:36:04;;;;;;;28.20;16.70;;;;;;;;;;777179;180;920966;-62
2023/11/28 07:38:30;;;;;;;38.60;20.80;;;;;;;;;;773764;178;918042;-64
2023/11/28 07:40:55;;;;;;;30.80;18.87;;;;;;;;;;772884;178;920244;-63
2023/11/28 07:43:21;;;;;;;28.40;19.67;;;;;;;;;;780216;179;922315;-62
2023/11/28 07:45:47;;;;;;;43.13;24.80;;;;;;;;;;769859;179;919911;-63
2023/11/28 07:48:13;;;;;;;30.00;16.13;;;;;;;;;;768372;178;919228;-65
2023/11/28 07:50:39;;;;;;;23.83;15.47;;;;;;;;;;777315;181;919126;-63
2023/11/28 07:53:06;;;;;;;27.10;16.97;;;;;;;;;;772871;180;917759;-63
2023/11/28 07:55:30;;;;;;;23.20;15.90;;;;;;;;;;771672;180;917677;-64
2023/11/28 07:57:56;;;;;;;34.43;21.07;;;;;;;;;;777681;180;816516;-68
2023/11/28 08:00:22;;;;;;;22.37;13.73;;;;;;;;;;773576;180;821595;-62
2023/11/28 08:02:48;;;;;;;27.27;15.57;;;;;;;;;;765141;180;818342;-67
2023/11/28 08:05:14;;;;;;;30.77;17.70;;;;;;;;;;767755;181;923335;-67
2023/11/28 08:07:40;;;;;;;24.87;14.90;;;;;;;;;;775651;180;916597;-65
2023/11/28 08:10:10;;;;;;;33.60;17.87;;;;;;;;;;772178;180;1020671;-66
2023/11/28 08:12:32;;;;;;;32.35;18.12;;;;;;;;;;777197;177;815669;-64
2023/11/28 08:14:58;;;;;;;36.20;21.90;;;;;;;;;;765064;181;924777;-63
2023/11/28 08:17:24;;;;;;;33.77;20.43;;;;;;;;;;768713;180;924217;-62
2023/11/28 08:19:50;;;;;;;45.70;27.97;;;;;;;;;;772703;179;896053;-62
2023/11/28 08:22:17;;;;;;;35.47;19.80;;;;;;;;;;776796;177;915999;-63
2023/11/28 08:24:41;;;;;;;33.80;20.50;;;;;;;;;;774606;177;923273;-63
2023/11/28 08:27:08;;;;;;;29.83;19.83;;;;;;;;;;774353;179;905071;-63
2023/11/28 08:29:33;;;;;;;25.00;17.47;;;;;;;;;;777775;180;919203;-63
2023/11/28 08:31:59;;;;;;;28.40;20.23;;;;;;;;;;772845;178;911730;-64
2023/11/28 08:34:25;;;;;;;27.95;18.10;;;;;;;;;;772412;180;915566;-63
2023/11/28 08:36:51;;;;;;;27.40;17.97;;;;;;;;;;771569;180;916889;-63
2023/11/28 08:39:17;;;;;;;27.52;17.62;;;;;;;;;;773686;180;920911;-65
2023/11/28 08:41:42;;;;;;;32.03;20.80;;;;;;;;;;770745;181;921984;-64
2023/11/28 08:44:09;;;;;;;33.83;21.97;;;;;;;;;;774757;180;816891;-63
2023/11/28 08:46:37;;;;;;;32.63;18.83;;;;;;;;;;776721;178;917904;-64
2023/11/28 08:49:00;;;;;;;23.50;14.47;;;;;;;;;;772480;180;647222;-62
2023/11/28 08:51:26;;;;;;;29.20;17.67;;;;;;;;;;780132;177;650914;-65
2023/11/28 08:53:52;;;;;;;43.40;23.40;;;;;;;;;;775518;180;919112;-63
2023/11/28 08:56:18;;;;;;;27.55;15.75;;;;;;;;;;769295;180;816046;-66
2023/11/28 08:58:43;;;;;;;24.43;16.57;;;;;;;;;;771247;177;918048;-63
2023/11/28 09:01:09;;;;;;;29.90;16.08;;;;;;;;;;774177;178;916960;-63
2023/11/28 09:03:35;;;;;;;31.10;17.90;;;;;;;;;;775969;181;919831;-63
2023/11/28 09:06:01;;;;;;;44.90;23.00;;;;;;;;;;772609;178;914677;-65
2023/11/28 09:08:27;;;;;;;25.23;17.77;;;;;;;;;;772855;178;880975;-63
2023/11/28 09:10:53;;;;;;;23.33;15.07;;;;;;;;;;778748;180;713662;-64
2023/11/28 09:13:20;;;;;;;23.30;15.20;;;;;;;;;;778436;177;794339;-64
2023/11/28 09:15:44;;;;;;;26.17;16.03;;;;;;;;;;763819;184;752817;-63
2023/11/28 09:18:12;;;;;;;31.03;17.47;;;;;;;;;;774123;180;627101;-64
2023/11/28 09:20:36;;;;;;;23.10;15.30;;;;;;;;;;775597;180;715137;-63
2023/11/28 09:23:02;;;;;;;21.87;14.03;;;;;;;;;;774697;179;646910;-64
2023/11/28 09:25:28;;;;;;;28.42;16.12;;;;;;;;;;778891;177;922499;-63
2023/11/28 09:27:54;;;;;;;25.80;15.43;;;;;;;;;;771300;178;918574;-63
2023/11/28 09:30:20;;;;;;;25.43;15.93;;;;;;;;;;770577;180;918776;-63
2023/11/28 09:32:46;;;;;;;29.87;18.20;;;;;;;;;;770055;181;909797;-63
2023/11/28 09:35:12;;;;;;;28.80;17.37;;;;;;;;;;775531;180;808240;-63
2023/11/28 09:37:38;;;;;;;29.73;16.77;;;;;;;;;;769848;180;918632;-63
2023/11/28 09:40:05;;;;;;;23.60;15.27;;;;;;;;;;773063;180;816216;-63
2023/11/28 09:42:30;;;;;;;32.00;16.60;;;;;;;;;;778046;179;812453;-63
2023/11/28 09:44:55;;;;;;;32.20;18.57;;;;;;;;;;769810;180;913200;-62
2023/11/28 09:47:21;;;;;;;29.97;18.23;;;;;;;;;;771480;181;813519;-63
2023/11/28 09:49:49;;;;;;;29.30;17.43;;;;;;;;;;776539;180;918155;-63
2023/11/28 09:52:13;;;;;;;31.40;16.43;;;;;;;;;;768697;181;919200;-63
2023/11/28 09:54:39;;;;;;;27.70;17.90;;;;;;;;;;768365;180;922567;-63
2023/11/28 09:57:06;;;;;;;43.60;26.13;;;;;;;;;;770204;179;921080;-63
2023/11/28 09:59:31;;;;;;;34.63;20.60;;;;;;;;;;770994;178;815839;-66
2023/11/28 10:01:57;;;;;;;36.13;19.43;;;;;;;;;;770500;179;783506;-64
2023/11/28 10:04:23;;;;;;;25.20;15.57;;;;;;;;;;771886;180;822409;-62
2023/11/28 10:06:51;;;;;;;27.07;15.80;;;;;;;;;;779035;180;891646;-62
2023/11/28 10:09:16;;;;;;;30.83;17.97;;;;;;;;;;775289;180;918618;-62
2023/11/28 10:11:41;;;;;;;26.57;16.40;;;;;;;;;;773082;177;892987;-64
2023/11/28 10:14:07;;;;;;;26.93;17.67;;;;;;;;;;776189;180;919878;-65
2023/11/28 10:16:39;;;;;;;32.80;18.70;;;;;;;;;;774455;180;916623;-64
2023/11/28 10:19:05;;;;;;;43.07;26.10;;;;;;;;;;774955;180;872368;-63
2023/11/28 10:21:30;;;;;;;29.70;18.13;;;;;;;;;;771793;180;920198;-64
2023/11/28 10:23:56;;;;;;;37.13;25.77;;;;;;;;;;776195;180;1021892;-64
2023/11/28 10:26:22;;;;;;;29.93;17.80;;;;;;;;;;771643;180;919434;-64
2023/11/28 10:28:48;;;;;;;30.33;17.77;;;;;;;;;;771105;177;920496;-65
2023/11/28 10:31:14;;;;;;;29.83;18.00;;;;;;;;;;775818;180;919270;-64
2023/11/28 10:33:40;;;;;;;30.37;19.57;;;;;;;;;;762604;180;919175;-64
2023/11/28 10:36:06;;;;;;;29.58;19.15;;;;;;;;;;771662;181;841540;-64
2023/11/28 10:38:32;;;;;;;32.33;18.60;;;;;;;;;;769482;181;956968;-65
2023/11/28 10:40:59;;;;;;;28.77;16.40;;;;;;;;;;767820;180;917315;-65
2023/11/28 10:43:24;;;;;;;27.47;16.70;;;;;;;;;;772910;180;846466;-64
2023/11/28 10:45:51;;;;;;;28.70;17.90;;;;;;;;;;770536;180;919889;-64
2023/11/28 10:48:15;;;;;;;36.53;20.20;;;;;;;;;;776143;180;858602;-64
2023/11/28 10:50:42;;;;;;;71.77;38.67;;;;;;;;;;775172;180;803044;-64
2023/11/28 10:53:08;;;;;;;38.70;22.33;;;;;;;;;;774009;180;841201;-64
2023/11/28 10:55:38;;;;;;;35.33;20.37;;;;;;;;;;777183;180;910069;-64
2023/11/28 10:58:03;;;;;;;77.67;43.27;;;;;;;;;;771654;180;923836;-62
2023/11/28 11:00:29;;;;;;;30.97;18.37;;;;;;;;;;772851;178;859090;-65
2023/11/28 11:02:55;;;;;;;30.00;17.40;;;;;;;;;;769466;181;919840;-65
2023/11/28 11:05:21;;;;;;;22.47;14.67;;;;;;;;;;773078;180;894374;-66
2023/11/28 11:07:47;;;;;;;35.03;21.20;;;;;;;;;;769930;180;955000;-64
2023/11/28 11:10:13;;;;;;;32.23;17.63;;;;;;;;;;772922;178;1017955;-65
2023/11/28 11:12:39;;;;;;;32.87;19.83;;;;;;;;;;774870;178;918332;-65
2023/11/28 11:15:22;;;;;;;35.53;20.23;;;;;;;;;;774301;179;916171;-65
2023/11/28 11:17:47;;;;;;;40.53;23.75;;;;;;;;;;772372;177;918163;-66
2023/11/28 11:20:13;;;;;;;34.60;21.40;;;;;;;;;;772637;179;852691;-66
2023/11/28 11:22:39;;;;;;;26.23;17.40;;;;;;;;;;781898;180;814960;-66
2023/11/28 11:25:06;;;;;;;29.57;18.40;;;;;;;;;;773324;180;919455;-65
2023/11/28 11:27:31;;;;;;;36.50;20.75;;;;;;;;;;773041;181;821455;-67
2023/11/28 11:29:57;;;;;;;35.95;24.40;;;;;;;;;;776309;180;919378;-66
2023/11/28 11:32:23;;;;;;;40.47;23.10;;;;;;;;;;769825;180;916660;-65
2023/11/28 11:34:49;;;;;;;33.60;19.50;;;;;;;;;;765801;177;916085;-68
2023/11/28 11:37:14;;;;;;;32.13;21.50;;;;;;;;;;773892;180;918499;-68
2023/11/28 11:39:40;;;;;;;36.00;25.20;;;;;;;;;;778521;178;920487;-65
2023/11/28 11:42:17;;;;;;;33.00;21.80;;;;;;;;;;772615;180;919273;-69
2023/11/28 11:44:43;;;;;;;39.80;23.50;;;;;;;;;;772596;180;922057;-68
2023/11/28 11:47:14;;;;;;;39.30;21.63;;;;;;;;;;769846;180;921681;-66
2023/11/28 11:49:38;;;;;;;42.00;25.53;;;;;;;;;;778280;180;918354;-66
2023/11/28 11:52:04;;;;;;;57.43;31.70;;;;;;;;;;773613;177;919050;-66
2023/11/28 11:54:30;;;;;;;95.13;43.63;;;;;;;;;;755580;183;918317;-66
2023/11/28 11:56:56;;;;;;;48.77;26.63;;;;;;;;;;770502;180;942652;-67
2023/11/28 11:59:25;;;;;;;43.87;25.50;;;;;;;;;;773996;178;869889;-67
2023/11/28 12:01:47;;;;;;;48.07;26.90;;;;;;;;;;771200;178;912884;-65
2023/11/28 12:04:13;;;;;;;44.20;24.37;;;;;;;;;;773177;180;916444;-67
2023/11/28 12:06:39;;;;;;;50.87;23.97;;;;;;;;;;764259;180;919176;-67
2023/11/28 12:09:05;;;;;;;45.00;27.03;;;;;;;;;;770994;179;939622;-68
2023/11/28 12:11:31;;;;;;;43.97;26.27;;;;;;;;;;771965;179;905462;-66
2023/11/28 12:13:59;;;;;;;49.27;30.27;;;;;;;;;;779558;180;654253;-67
2023/11/28 12:16:23;;;;;;;46.97;24.73;;;;;;;;;;772672;178;914844;-67
2023/11/28 12:18:48;;;;;;;37.60;23.10;;;;;;;;;;772880;181;714088;-68
2023/11/28 12:21:14;;;;;;;36.40;20.40;;;;;;;;;;780242;180;711257;-67
2023/11/28 12:23:40;;;;;;;35.57;20.57;;;;;;;;;;773585;180;907031;-67
2023/11/28 12:26:06;;;;;;;37.33;21.17;;;;;;;;;;776941;179;914542;-67
2023/11/28 12:28:32;;;;;;;28.80;19.70;;;;;;;;;;768575;181;916884;-69
2023/11/28 12:30:58;;;;;;;40.90;22.43;;;;;;;;;;771275;180;919269;-69
2023/11/28 12:33:24;;;;;;;79.57;38.03;;;;;;;;;;772388;180;819515;-67
2023/11/28 12:35:50;;;;;;;114.23;51.37;;;;;;;;;;770801;178;922090;-69
2023/11/28 12:38:15;;;;;;;134.67;50.30;;;;;;;;;;777460;178;921642;-67
2023/11/28 12:40:41;;;;;;;73.97;36.13;;;;;;;;;;769276;180;919207;-68
2023/11/28 12:43:08;;;;;;;98.90;45.73;;;;;;;;;;772535;178;918473;-69
2023/11/28 12:45:33;;;;;;;71.90;34.90;;;;;;;;;;775985;177;817835;-68
2023/11/28 12:47:59;;;;;;;48.22;28.23;;;;;;;;;;769603;180;916142;-69
2023/11/28 12:50:26;;;;;;;42.77;23.07;;;;;;;;;;774592;180;917682;-69
2023/11/28 12:52:51;;;;;;;41.90;25.62;;;;;;;;;;779608;178;920364;-70
2023/11/28 12:55:16;;;;;;;52.63;27.60;;;;;;;;;;772820;179;920090;-67
2023/11/28 12:57:42;;;;;;;38.88;22.30;;;;;;;;;;771221;179;919525;-68
2023/11/28 13:00:09;;;;;;;53.75;31.83;;;;;;;;;;775724;179;919252;-67
2023/11/28 13:02:35;;;;;;;62.10;40.67;;;;;;;;;;781200;178;920086;-67
2023/11/28 13:05:01;;;;;;;139.00;73.43;;;;;;;;;;770578;180;916060;-66
2023/11/28 13:07:27;;;;;;;56.07;31.77;;;;;;;;;;771977;177;918945;-67
2023/11/28 13:09:52;;;;;;;70.80;42.77;;;;;;;;;;777413;180;1021014;-66
2023/11/28 13:12:18;;;;;;;54.37;28.73;;;;;;;;;;772926;181;918989;-66
2023/11/28 13:14:44;;;;;;;49.50;28.13;;;;;;;;;;769148;180;1020114;-67
2023/11/28 13:17:10;;;;;;;117.27;44.63;;;;;;;;;;777197;180;917397;-65
2023/11/28 13:19:36;;;;;;;85.77;41.13;;;;;;;;;;772041;178;918820;-65
2023/11/28 13:22:03;;;;;;;68.60;32.77;;;;;;;;;;774775;178;942312;-66
2023/11/28 13:24:27;;;;;;;65.57;35.58;;;;;;;;;;778447;180;917689;-65
2023/11/28 13:26:53;;;;;;;71.70;35.97;;;;;;;;;;774254;177;812368;-65
2023/11/28 13:29:21;;;;;;;82.77;39.50;;;;;;;;;;767923;178;919321;-67
2023/11/28 13:31:45;;;;;;;61.57;34.33;;;;;;;;;;774563;178;817120;-67
2023/11/28 13:34:12;;;;;;;69.00;36.47;;;;;;;;;;778993;181;1021966;-66
2023/11/28 13:36:37;;;;;;;80.13;38.43;;;;;;;;;;774567;177;919193;-66
2023/11/28 13:39:03;;;;;;;78.53;39.10;;;;;;;;;;776240;177;905264;-66
2023/11/28 13:41:28;;;;;;;44.47;21.63;;;;;;;;;;774480;180;814994;-66
2023/11/28 13:43:55;;;;;;;54.53;28.33;;;;;;;;;;774478;177;919233;-66
2023/11/28 13:46:21;;;;;;;49.00;25.27;;;;;;;;;;776676;180;918668;-66
2023/11/28 13:48:48;;;;;;;44.30;24.07;;;;;;;;;;765598;180;819057;-66
2023/11/28 13:51:12;;;;;;;53.77;30.47;;;;;;;;;;769003;180;690759;-67
2023/11/28 13:53:38;;;;;;;56.90;26.57;;;;;;;;;;769205;178;1006843;-67
2023/11/28 13:56:04;;;;;;;59.50;29.50;;;;;;;;;;772771;180;1021505;-66
2023/11/28 13:58:30;;;;;;;75.87;29.80;;;;;;;;;;774463;181;817555;-67
2023/11/28 14:00:55;;;;;;;70.70;33.60;;;;;;;;;;777721;179;652148;-66